createdAt,value
2019-03-04T00:01:44.247Z,97029.05
2019-03-04T00:06:49.389Z,97023.42
2019-03-04T00:11:54.983Z,97026.99
2019-03-04T00:17:01.498Z,97025.62
2019-03-04T00:22:07.098Z,97027.33
2019-03-04T00:27:12.329Z,97022.22
2019-03-04T00:32:17.388Z,97018.25
2019-03-04T00:37:22.520Z,97006.91
2019-03-04T00:42:27.657Z,96976.86
2019-03-04T00:47:32.792Z,96957.64
2019-03-04T00:52:37.942Z,96945.37
2019-03-04T00:57:43.450Z,96950.03
2019-03-04T01:02:48.673Z,96934.76
2019-03-04T01:07:54.204Z,96913.19
2019-03-04T01:12:59.554Z,96913.33
2019-03-04T01:18:05.211Z,96935.42
2019-03-04T01:23:10.456Z,96950.45
2019-03-04T01:28:16.965Z,96941.62
2019-03-04T01:33:22.118Z,96927.91
2019-03-04T01:38:27.861Z,96918.75
2019-03-04T01:43:33.175Z,96918.69
2019-03-04T01:48:39.172Z,96921.90
2019-03-04T01:53:45.149Z,96899.69
2019-03-04T01:58:50.200Z,96881.13
2019-03-04T02:03:55.260Z,96872.09
2019-03-04T02:09:01.262Z,96866.88
2019-03-04T02:14:08.924Z,96842.30
2019-03-04T02:19:14.313Z,96842.16
2019-03-04T02:24:26.952Z,96835.48
2019-03-04T02:29:33.051Z,96815.70
2019-03-04T02:34:38.276Z,96793.69
2019-03-04T02:39:43.442Z,96772.14
2019-03-04T02:44:50.125Z,96779.69
2019-03-04T02:49:55.103Z,96768.86
2019-03-04T02:55:00.409Z,96748.87
2019-03-04T03:00:07.038Z,96752.53
2019-03-04T03:05:12.573Z,96757.77
2019-03-04T03:10:17.803Z,96752.55
2019-03-04T03:15:23.498Z,96753.74
2019-03-04T03:20:28.966Z,96744.55
2019-03-04T03:25:34.936Z,96722.30
2019-03-04T03:30:40.003Z,96699.80
2019-03-04T03:35:45.403Z,96682.16
2019-03-04T03:40:51.245Z,96667.78
2019-03-04T03:45:56.770Z,96646.80
2019-03-04T03:51:01.990Z,96645.31
2019-03-04T03:56:07.244Z,96632.39
2019-03-04T04:01:12.376Z,96630.56
2019-03-04T04:06:18.615Z,96628.82
2019-03-04T04:11:23.856Z,96627.58
2019-03-04T04:16:29.020Z,96611.94
2019-03-04T04:21:34.258Z,96583.41
2019-03-04T04:26:39.413Z,96569.31
2019-03-04T04:31:45.250Z,96553.83
2019-03-04T04:36:50.421Z,96552.40
2019-03-04T04:41:55.603Z,96552.89
2019-03-04T04:47:03.007Z,96559.95
2019-03-04T04:52:08.650Z,96567.84
2019-03-04T04:57:13.813Z,96575.26
2019-03-04T05:02:18.974Z,96569.47
2019-03-04T05:07:24.221Z,96563.17
2019-03-04T05:12:29.818Z,96525.55
2019-03-04T05:17:36.025Z,96507.83
2019-03-04T05:22:41.585Z,96502.77
2019-03-04T05:27:46.826Z,96503.56
2019-03-04T05:32:52.629Z,96476.04
2019-03-04T05:37:57.801Z,96469.22
2019-03-04T05:43:03.048Z,96478.54
2019-03-04T05:48:08.297Z,96461.06
2019-03-04T05:53:13.976Z,96454.72
2019-03-04T05:58:19.248Z,96453.99
2019-03-04T06:03:25.078Z,96459.81
2019-03-04T06:08:30.145Z,96466.00
2019-03-04T06:13:35.653Z,96468.16
2019-03-04T06:18:41.234Z,96449.41
2019-03-04T06:23:46.484Z,96416.59
2019-03-04T06:28:52.070Z,96397.55
2019-03-04T06:33:58.191Z,96363.89
2019-03-04T06:39:06.422Z,96360.17
2019-03-04T06:44:11.736Z,96331.80
2019-03-04T06:49:17.847Z,96316.67
2019-03-04T06:55:04.881Z,96321.72
2019-03-04T07:00:34.443Z,96331.25
2019-03-04T07:05:50.837Z,96304.22
2019-03-04T07:10:56.457Z,96292.81
2019-03-04T07:16:03.443Z,96297.31
2019-03-04T07:21:08.735Z,96284.58
2019-03-04T07:26:14.478Z,96246.69
2019-03-04T07:31:19.725Z,96232.62
2019-03-04T07:36:25.257Z,96210.89
2019-03-04T07:41:35.450Z,96201.88
2019-03-04T07:46:42.024Z,96203.72
2019-03-04T07:51:48.427Z,96196.23
2019-03-04T07:56:54.232Z,96179.20
2019-03-04T08:01:59.584Z,96169.05
2019-03-04T08:07:45.366Z,96187.88
2019-03-04T08:12:57.588Z,96194.50
2019-03-04T08:18:04.609Z,96222.09
2019-03-04T08:23:10.200Z,96214.65
2019-03-04T08:28:16.604Z,96206.88
2019-03-04T08:33:21.863Z,96216.67
2019-03-04T08:38:27.119Z,96206.59
2019-03-04T08:43:32.684Z,96218.30
2019-03-04T08:48:38.287Z,96226.03
2019-03-04T08:53:44.403Z,96188.23
2019-03-04T08:58:51.539Z,96167.05
2019-03-04T09:03:56.866Z,96187.42
2019-03-04T09:09:02.126Z,96182.72
2019-03-04T09:14:09.409Z,96115.33
2019-03-04T09:19:15.046Z,96084.48
2019-03-04T09:24:20.407Z,96075.24
2019-03-04T09:29:26.252Z,96029.03
2019-03-04T09:34:32.571Z,96030.95
2019-03-04T09:39:37.885Z,95991.88
2019-03-04T09:44:43.543Z,95966.44
2019-03-04T09:49:48.789Z,96011.83
2019-03-04T09:54:54.045Z,96037.17
2019-03-04T09:59:59.406Z,96054.69
2019-03-04T10:05:35.297Z,96033.98
2019-03-04T10:11:31.568Z,95999.55
2019-03-04T10:16:56.466Z,96023.40
2019-03-04T10:22:28.917Z,96044.05
2019-03-04T10:28:03.709Z,96037.12
2019-03-04T10:34:00.889Z,96037.70
2019-03-04T10:39:34.286Z,96054.72
2019-03-04T10:45:14.302Z,96047.66
2019-03-04T10:50:19.553Z,96070.89
2019-03-04T10:55:25.379Z,96054.92
2019-03-04T11:00:30.628Z,96028.92
2019-03-04T11:05:36.934Z,96087.90
2019-03-04T11:10:42.641Z,96083.95
2019-03-04T11:15:48.247Z,96109.09
2019-03-04T11:20:53.522Z,96158.98
2019-03-04T11:25:58.999Z,96150.28
2019-03-04T11:31:04.398Z,96195.30
2019-03-04T11:36:09.658Z,96187.36
2019-03-04T11:41:17.616Z,96149.40
2019-03-04T11:46:24.775Z,96202.41
2019-03-04T11:51:30.580Z,96182.48
2019-03-04T11:56:36.053Z,96150.42
2019-03-04T12:01:45.391Z,96127.64
2019-03-04T12:06:51.284Z,96106.35
2019-03-04T12:11:57.008Z,96120.92
2019-03-04T12:17:02.747Z,96135.48
2019-03-04T12:22:08.461Z,96125.95
2019-03-04T12:27:14.127Z,96115.63
2019-03-04T12:32:24.714Z,96088.34
2019-03-04T12:37:31.554Z,96070.83
2019-03-04T12:42:36.933Z,96084.84
2019-03-04T12:47:43.089Z,96068.39
2019-03-04T12:52:48.328Z,96078.73
2019-03-04T12:57:53.730Z,96060.44
2019-03-04T13:02:59.006Z,96072.09
2019-03-04T13:08:05.533Z,96068.92
2019-03-04T13:13:10.850Z,96059.17
2019-03-04T13:18:16.108Z,96036.63
2019-03-04T13:23:21.368Z,96041.63
2019-03-04T13:28:27.176Z,96050.41
2019-03-04T13:33:32.481Z,96056.77
2019-03-04T13:38:37.839Z,96084.17
2019-03-04T13:43:43.200Z,96073.92
2019-03-04T13:48:49.682Z,96086.16
2019-03-04T13:53:55.215Z,96093.05
2019-03-04T13:59:00.663Z,96065.23
2019-03-04T14:04:05.932Z,96038.43
2019-03-04T14:09:12.378Z,96049.80
2019-03-04T14:14:18.017Z,96034.27
2019-03-04T14:19:23.399Z,96025.14
2019-03-04T14:24:28.772Z,96020.45
2019-03-04T14:29:34.031Z,96059.93
2019-03-04T14:34:39.297Z,96099.77
2019-03-04T14:39:46.358Z,96117.00
2019-03-04T14:44:52.113Z,96126.94
2019-03-04T14:50:09.191Z,96129.27
2019-03-04T14:55:06.131Z,96158.70
2019-03-04T15:00:17.192Z,96115.55
2019-03-04T15:05:22.907Z,96102.52
2019-03-04T15:10:28.167Z,96095.92
2019-03-04T15:15:33.418Z,96106.87
2019-03-04T15:20:38.802Z,96118.00
2019-03-04T15:25:44.066Z,96117.72
2019-03-04T15:30:51.623Z,96132.80
2019-03-04T15:35:57.230Z,96136.50
2019-03-04T15:41:02.503Z,96130.15
2019-03-04T15:46:07.790Z,96133.56
2019-03-04T15:51:13.436Z,96138.22
2019-03-04T15:56:19.385Z,96174.69
2019-03-04T16:01:24.929Z,96177.30
2019-03-04T16:06:30.593Z,96187.06
2019-03-04T16:11:35.833Z,96192.28
2019-03-04T16:16:41.344Z,96195.65
2019-03-04T16:21:46.888Z,96206.70
2019-03-04T16:26:51.961Z,96189.77
2019-03-04T16:31:57.141Z,96210.34
2019-03-04T16:37:06.449Z,96208.97
2019-03-04T16:42:12.072Z,96230.63
2019-03-04T16:47:17.617Z,96251.94
2019-03-04T16:52:26.433Z,96367.23
2019-03-04T16:57:32.023Z,96397.18
2019-03-04T17:02:37.238Z,96374.45
2019-03-04T17:07:42.502Z,96369.86
2019-03-04T17:12:47.658Z,96371.27
2019-03-04T17:17:52.815Z,96371.40
2019-03-04T17:22:59.074Z,96369.47
2019-03-04T17:28:04.346Z,96383.74
2019-03-04T17:33:09.504Z,96392.27
2019-03-04T17:38:15.123Z,96374.56
2019-03-04T17:43:20.616Z,96401.24
2019-03-04T17:48:27.873Z,96408.17
2019-03-04T17:53:33.038Z,96415.36
2019-03-04T17:58:38.500Z,96423.09
2019-03-04T18:03:44.728Z,96453.81
2019-03-04T18:08:50.221Z,96446.91
2019-03-04T18:13:55.381Z,96465.02
2019-03-04T18:19:00.877Z,96483.16
2019-03-04T18:24:06.486Z,96476.97
2019-03-04T18:29:28.365Z,96496.44
2019-03-04T18:34:58.856Z,96479.73
2019-03-04T18:40:50.470Z,96491.26
2019-03-04T18:46:42.531Z,96493.38
2019-03-04T18:51:48.908Z,96500.22
2019-03-04T18:56:54.249Z,96508.80
2019-03-04T19:01:59.656Z,96519.38
2019-03-04T19:07:05.000Z,96531.89
2019-03-04T19:12:10.239Z,96543.24
2019-03-04T19:17:15.651Z,96563.85
2019-03-04T19:22:20.809Z,96575.65
2019-03-04T19:27:25.992Z,96603.72
2019-03-04T19:32:31.583Z,96598.02
2019-03-04T19:37:37.821Z,96599.92
2019-03-04T19:42:43.045Z,96623.42
2019-03-04T19:47:49.044Z,96648.83
2019-03-04T19:52:57.375Z,96654.66
2019-03-04T19:58:02.542Z,96656.92
2019-03-04T20:03:08.724Z,96675.38
2019-03-04T20:08:14.313Z,96687.57
2019-03-04T20:13:19.672Z,96685.31
2019-03-04T20:18:24.831Z,96693.26
2019-03-04T20:23:30.002Z,96703.52
2019-03-04T20:28:35.153Z,96694.48
2019-03-04T20:33:40.693Z,96701.08
2019-03-04T20:38:48.161Z,96702.13
2019-03-04T20:43:53.315Z,96721.13
2019-03-04T20:48:59.488Z,96720.34
2019-03-04T20:54:04.810Z,96731.14
2019-03-04T20:59:09.964Z,96731.88
2019-03-04T21:04:16.385Z,96746.28
2019-03-04T21:09:22.987Z,96745.16
2019-03-04T21:14:28.407Z,96751.68
2019-03-04T21:19:33.983Z,96764.66
2019-03-04T21:24:40.891Z,96779.88
2019-03-04T21:30:22.090Z,96781.08
2019-03-04T21:36:04.594Z,96782.57
2019-03-04T21:41:20.320Z,96798.48
2019-03-04T21:46:52.507Z,96801.84
2019-03-04T21:52:36.318Z,96806.85
2019-03-04T21:57:45.663Z,96803.25
2019-03-04T22:02:58.060Z,96812.71
2019-03-04T22:08:03.238Z,96816.58
2019-03-04T22:13:08.473Z,96815.92
2019-03-04T22:18:14.871Z,96819.06
2019-03-04T22:23:20.269Z,96829.94
2019-03-04T22:28:25.736Z,96842.45
2019-03-04T22:33:30.927Z,96827.22
2019-03-04T22:38:36.080Z,96839.08
2019-03-04T22:43:41.254Z,96841.11
2019-03-04T22:48:46.427Z,96840.20
2019-03-04T22:53:51.730Z,96839.42
2019-03-04T22:58:56.864Z,96841.89
2019-03-04T23:04:23.136Z,96868.47
2019-03-04T23:09:29.608Z,96859.30
2019-03-04T23:14:34.887Z,96865.33
2019-03-04T23:19:40.685Z,96881.81
2019-03-04T23:24:45.847Z,96882.06
2019-03-04T23:29:51.149Z,96888.02
2019-03-04T23:34:56.304Z,96889.66
2019-03-04T23:40:01.763Z,96881.10
2019-03-04T23:45:09.354Z,96877.98
2019-03-04T23:50:20.179Z,96874.25
2019-03-04T23:55:25.340Z,96870.95
